createdAt,value
2018-03-08T00:00:36.704Z,4.00
2018-03-08T00:01:36.675Z,4.00
2018-03-08T00:03:30.643Z,4.00
2018-03-08T00:04:30.137Z,4.00
2018-03-08T00:06:23.129Z,4.00
2018-03-08T00:07:23.093Z,4.00
2018-03-08T00:09:16.054Z,4.00
2018-03-08T00:10:16.048Z,4.00
2018-03-08T00:12:09.033Z,4.00
2018-03-08T00:13:09.006Z,4.00
2018-03-08T00:15:01.978Z,4.00
2018-03-08T00:16:01.981Z,4.00
2018-03-08T00:17:58.938Z,4.00
2018-03-08T00:18:58.920Z,4.00
2018-03-08T00:20:51.879Z,4.00
2018-03-08T00:21:51.871Z,4.00
2018-03-08T00:23:44.863Z,4.00
2018-03-08T00:24:44.845Z,4.00
2018-03-08T00:26:38.322Z,4.00
2018-03-08T00:27:38.429Z,4.00
2018-03-08T00:28:38.304Z,4.00
2018-03-08T00:29:38.314Z,4.00
2018-03-08T00:30:38.307Z,4.00
2018-03-08T00:31:38.312Z,4.00
2018-03-08T00:32:38.330Z,4.00
2018-03-08T00:33:38.324Z,4.00
2018-03-08T00:34:38.330Z,4.00
2018-03-08T00:35:38.381Z,4.00
2018-03-08T00:36:38.329Z,4.00
2018-03-08T00:37:39.273Z,4.00
2018-03-08T00:38:38.338Z,4.00
2018-03-08T00:40:31.309Z,4.00
2018-03-08T00:41:31.242Z,4.00
2018-03-08T00:43:24.225Z,4.00
2018-03-08T00:44:24.196Z,4.00
2018-03-08T00:46:17.156Z,4.00
2018-03-08T00:47:17.152Z,4.00
2018-03-08T00:49:10.142Z,4.00
2018-03-08T00:50:10.109Z,4.00
2018-03-08T00:52:03.069Z,4.00
2018-03-08T00:53:03.063Z,4.00
2018-03-08T00:54:56.059Z,4.00
2018-03-08T00:55:56.024Z,4.00
2018-03-08T00:57:49.022Z,0.00
2018-03-08T00:58:49.000Z,0.00
2018-03-08T01:00:41.976Z,4.00
2018-03-08T01:01:41.934Z,4.00
2018-03-08T01:02:41.939Z,0.00
2018-03-08T01:03:41.941Z,4.00
2018-03-08T01:04:41.947Z,4.00
2018-03-08T01:05:41.953Z,4.00
2018-03-08T01:06:41.954Z,4.00
2018-03-08T01:07:41.969Z,4.00
2018-03-08T01:08:41.959Z,4.00
2018-03-08T01:09:41.964Z,4.00
2018-03-08T01:10:41.964Z,4.00
2018-03-08T01:11:41.997Z,4.00
2018-03-08T01:12:41.971Z,4.00
2018-03-08T01:13:41.973Z,4.00
2018-03-08T01:14:42.030Z,4.00
2018-03-08T01:15:42.062Z,4.00
2018-03-08T01:16:42.059Z,4.00
2018-03-08T01:17:42.026Z,4.00
2018-03-08T01:18:42.005Z,4.00
2018-03-08T01:19:42.004Z,4.00
2018-03-08T01:20:42.029Z,4.00
2018-03-08T01:21:42.002Z,4.00
2018-03-08T01:22:42.012Z,4.00
2018-03-08T01:23:42.030Z,4.00
2018-03-08T01:24:42.054Z,4.00
2018-03-08T01:25:42.038Z,4.00
2018-03-08T01:26:42.017Z,4.00
2018-03-08T01:27:42.019Z,4.00
2018-03-08T01:28:42.029Z,4.00
2018-03-08T01:29:42.021Z,4.00
2018-03-08T01:30:42.027Z,4.00
2018-03-08T01:31:42.030Z,4.00
2018-03-08T01:32:42.032Z,4.00
2018-03-08T01:33:42.033Z,4.00
2018-03-08T01:34:42.046Z,4.00
2018-03-08T01:35:42.040Z,4.00
2018-03-08T01:36:42.044Z,4.00
2018-03-08T01:38:35.018Z,4.00
2018-03-08T01:39:35.007Z,4.00
2018-03-08T01:41:27.947Z,4.00
2018-03-08T01:42:27.915Z,4.00
2018-03-08T01:43:27.917Z,4.00
2018-03-08T01:44:27.975Z,0.00
2018-03-08T01:45:27.932Z,0.00
2018-03-08T01:46:27.931Z,0.00
2018-03-08T01:47:27.952Z,0.00
2018-03-08T01:48:27.955Z,0.00
2018-03-08T01:49:27.961Z,4.00
2018-03-08T01:50:27.945Z,0.00
2018-03-08T01:51:27.972Z,0.00
2018-03-08T01:52:27.955Z,0.00
2018-03-08T01:53:27.958Z,0.00
2018-03-08T01:54:27.953Z,0.00
2018-03-08T01:55:27.961Z,0.00
2018-03-08T01:56:27.960Z,4.00
2018-03-08T01:57:27.966Z,4.00
2018-03-08T01:58:27.964Z,4.00
2018-03-08T01:59:27.970Z,4.00
2018-03-08T02:00:27.974Z,4.00
2018-03-08T02:01:27.984Z,4.00
2018-03-08T02:02:27.986Z,4.00
2018-03-08T02:03:27.986Z,4.00
2018-03-08T02:04:27.984Z,0.00
2018-03-08T02:05:27.988Z,4.00
2018-03-08T02:06:27.995Z,0.00
2018-03-08T02:07:27.989Z,4.00
2018-03-08T02:08:28.026Z,4.00
2018-03-08T02:09:28.007Z,0.00
2018-03-08T02:10:28.006Z,0.00
2018-03-08T02:11:28.012Z,0.00
2018-03-08T02:12:28.010Z,0.00
2018-03-08T02:13:28.017Z,0.00
2018-03-08T02:14:28.014Z,0.00
2018-03-08T02:15:28.030Z,0.00
2018-03-08T02:16:28.024Z,0.00
2018-03-08T02:17:28.034Z,0.00
2018-03-08T02:18:28.054Z,0.00
2018-03-08T02:19:28.038Z,0.00
2018-03-08T02:20:28.034Z,4.00
2018-03-08T02:21:28.037Z,0.00
2018-03-08T02:22:28.041Z,0.00
2018-03-08T02:23:28.044Z,0.00
2018-03-08T02:24:28.051Z,0.00
2018-03-08T02:25:28.138Z,0.00
2018-03-08T02:26:28.050Z,4.00
2018-03-08T02:27:28.055Z,4.00
2018-03-08T02:28:28.056Z,4.00
2018-03-08T02:29:28.062Z,4.00
2018-03-08T02:30:28.073Z,4.00
2018-03-08T02:31:28.077Z,0.00
2018-03-08T02:32:28.080Z,4.00
2018-03-08T02:33:28.081Z,4.00
2018-03-08T02:34:28.096Z,0.00
2018-03-08T02:35:28.084Z,4.00
2018-03-08T02:36:28.084Z,4.00
2018-03-08T02:37:28.087Z,4.00
2018-03-08T02:38:28.094Z,0.00
2018-03-08T02:39:28.099Z,0.00
2018-03-08T02:40:28.105Z,0.00
2018-03-08T02:41:28.104Z,0.00
2018-03-08T02:42:28.109Z,4.00
2018-03-08T02:43:28.116Z,0.00
2018-03-08T02:44:28.135Z,0.00
2018-03-08T02:45:28.133Z,0.00
2018-03-08T02:46:28.115Z,4.00
2018-03-08T02:47:28.115Z,0.00
2018-03-08T02:48:28.129Z,0.00
2018-03-08T02:49:28.127Z,0.00
2018-03-08T02:50:28.127Z,4.00
2018-03-08T02:52:21.235Z,0.00
2018-03-08T02:53:21.142Z,4.00
2018-03-08T02:55:14.047Z,4.00
2018-03-08T02:56:14.046Z,4.00
2018-03-08T02:58:07.040Z,4.00
2018-03-08T02:59:07.002Z,4.00
2018-03-08T03:00:59.962Z,4.00
2018-03-08T03:01:59.954Z,4.00
2018-03-08T03:03:52.945Z,4.00
2018-03-08T03:04:52.909Z,0.00
2018-03-08T03:06:45.890Z,0.00
2018-03-08T03:07:45.875Z,4.00
2018-03-08T03:08:45.874Z,4.00
2018-03-08T03:09:45.880Z,4.00
2018-03-08T03:10:45.879Z,0.00
2018-03-08T03:11:45.891Z,0.00
2018-03-08T03:12:45.889Z,4.00
2018-03-08T03:13:45.896Z,0.00
2018-03-08T03:14:45.893Z,4.00
2018-03-08T03:15:45.906Z,0.00
2018-03-08T03:16:45.907Z,4.00
2018-03-08T03:17:45.907Z,4.00
2018-03-08T03:18:45.909Z,0.00
2018-03-08T03:19:45.912Z,0.00
2018-03-08T03:20:45.913Z,0.00
2018-03-08T03:21:45.920Z,4.00
2018-03-08T03:22:45.919Z,4.00
2018-03-08T03:23:45.920Z,0.00
2018-03-08T03:24:45.936Z,0.00
2018-03-08T03:25:45.933Z,0.00
2018-03-08T03:26:45.945Z,0.00
2018-03-08T03:27:45.933Z,0.00
2018-03-08T03:28:45.938Z,0.00
2018-03-08T03:29:45.944Z,0.00
2018-03-08T03:30:45.954Z,0.00
2018-03-08T03:31:45.954Z,0.00
2018-03-08T03:32:45.953Z,0.00
2018-03-08T03:33:45.972Z,0.00
2018-03-08T03:34:45.957Z,0.00
2018-03-08T03:35:45.978Z,0.00
2018-03-08T03:36:45.967Z,0.00
2018-03-08T03:37:45.969Z,0.00
2018-03-08T03:38:45.978Z,0.00
2018-03-08T03:39:45.976Z,0.00
2018-03-08T03:40:45.971Z,0.00
2018-03-08T03:41:45.982Z,0.00
2018-03-08T03:42:45.978Z,0.00
2018-03-08T03:43:45.985Z,0.00
2018-03-08T03:44:45.990Z,0.00
2018-03-08T03:45:45.999Z,0.00
2018-03-08T03:46:46.013Z,0.00
2018-03-08T03:47:46.002Z,0.00
2018-03-08T03:48:46.005Z,0.00
2018-03-08T03:49:46.008Z,0.00
2018-03-08T03:51:38.962Z,0.00
2018-03-08T03:52:38.952Z,0.00
2018-03-08T03:54:31.900Z,0.00
2018-03-08T03:55:31.902Z,0.00
2018-03-08T03:57:24.887Z,0.00
2018-03-08T03:58:24.855Z,0.00
2018-03-08T04:00:17.819Z,0.00
2018-03-08T04:01:17.819Z,4.00
2018-03-08T04:03:10.804Z,0.00
2018-03-08T04:04:10.767Z,0.00
2018-03-08T04:06:03.732Z,4.00
2018-03-08T04:07:03.733Z,0.00
2018-03-08T04:08:57.207Z,0.00
2018-03-08T04:09:56.689Z,0.00
2018-03-08T04:11:49.652Z,0.00
2018-03-08T04:12:49.652Z,0.00
2018-03-08T04:14:42.630Z,0.00
2018-03-08T04:15:42.601Z,0.00
2018-03-08T04:17:35.571Z,0.00
2018-03-08T04:18:35.549Z,0.00
2018-03-08T04:20:28.549Z,0.00
2018-03-08T04:21:28.517Z,0.00
2018-03-08T04:23:21.472Z,0.00
2018-03-08T04:24:21.469Z,0.00
2018-03-08T04:26:14.444Z,0.00
2018-03-08T04:27:14.427Z,0.00
2018-03-08T04:28:14.430Z,0.00
2018-03-08T04:29:14.444Z,0.00
2018-03-08T04:30:14.441Z,4.00
2018-03-08T04:31:14.439Z,0.00
2018-03-08T04:32:14.448Z,0.00
2018-03-08T04:33:14.447Z,0.00
2018-03-08T04:34:14.455Z,0.00
2018-03-08T04:35:14.446Z,0.00
2018-03-08T04:36:14.458Z,4.00
2018-03-08T04:37:14.461Z,0.00
2018-03-08T04:38:14.485Z,0.00
2018-03-08T04:39:14.459Z,0.00
2018-03-08T04:40:14.465Z,0.00
2018-03-08T04:41:14.472Z,0.00
2018-03-08T04:42:14.482Z,4.00
2018-03-08T04:43:14.496Z,0.00
2018-03-08T04:44:14.489Z,0.00
2018-03-08T04:45:14.483Z,0.00
2018-03-08T04:46:14.492Z,0.00
2018-03-08T04:47:14.493Z,0.00
2018-03-08T04:48:14.499Z,4.00
2018-03-08T04:49:14.499Z,0.00
2018-03-08T04:50:14.504Z,0.00
2018-03-08T04:51:14.501Z,0.00
2018-03-08T04:52:14.509Z,0.00
2018-03-08T04:53:14.505Z,0.00
2018-03-08T04:54:14.520Z,4.00
2018-03-08T04:55:14.524Z,0.00
2018-03-08T04:56:14.523Z,0.00
2018-03-08T04:57:14.524Z,0.00
2018-03-08T04:58:14.553Z,0.00
2018-03-08T04:59:14.530Z,0.00
2018-03-08T05:00:14.540Z,0.00
2018-03-08T05:01:14.548Z,0.00
2018-03-08T05:02:14.547Z,0.00
2018-03-08T05:03:14.548Z,0.00
2018-03-08T05:04:14.553Z,4.00
2018-03-08T05:05:14.560Z,0.00
2018-03-08T05:06:14.561Z,0.00
2018-03-08T05:07:14.567Z,4.00
2018-03-08T05:08:14.568Z,0.00
2018-03-08T05:09:14.567Z,0.00
2018-03-08T05:10:14.567Z,4.00
2018-03-08T05:11:14.581Z,0.00
2018-03-08T05:12:14.571Z,0.00
2018-03-08T05:13:14.581Z,4.00
2018-03-08T05:14:14.578Z,0.00
2018-03-08T05:15:14.590Z,4.00
2018-03-08T05:16:14.590Z,4.00
2018-03-08T05:18:08.715Z,0.00
2018-03-08T05:19:07.550Z,0.00
2018-03-08T05:21:00.550Z,4.00
2018-03-08T05:22:00.512Z,0.00
2018-03-08T05:23:53.523Z,4.00
2018-03-08T05:24:53.472Z,0.00
2018-03-08T05:26:46.444Z,4.00
2018-03-08T05:27:46.425Z,4.00
2018-03-08T05:29:39.436Z,4.00
2018-03-08T05:30:39.719Z,4.00
2018-03-08T05:32:32.278Z,4.00
2018-03-08T05:33:32.275Z,4.00
2018-03-08T05:35:25.231Z,4.00
2018-03-08T05:36:25.198Z,4.00
2018-03-08T05:38:18.189Z,4.00
2018-03-08T05:39:18.147Z,4.00
2018-03-08T05:41:11.157Z,4.00
2018-03-08T05:42:11.113Z,8.00
2018-03-08T05:44:04.074Z,8.00
2018-03-08T05:45:04.073Z,8.00
2018-03-08T05:46:57.047Z,12.00
2018-03-08T05:47:57.018Z,8.00
2018-03-08T05:48:57.025Z,12.00
2018-03-08T05:49:57.029Z,12.00
2018-03-08T05:50:57.043Z,16.00
2018-03-08T05:51:57.039Z,12.00
2018-03-08T05:52:57.073Z,12.00
2018-03-08T05:53:57.041Z,16.00
2018-03-08T05:54:57.047Z,16.00
2018-03-08T05:55:57.054Z,16.00
2018-03-08T05:56:58.006Z,16.00
2018-03-08T05:57:57.050Z,20.00
2018-03-08T05:58:57.060Z,28.00
2018-03-08T05:59:57.057Z,28.00
2018-03-08T06:00:57.064Z,36.00
2018-03-08T06:01:57.079Z,40.00
2018-03-08T06:02:57.071Z,48.00
2018-03-08T06:03:57.075Z,60.00
2018-03-08T06:04:57.080Z,64.00
2018-03-08T06:05:57.083Z,68.00
2018-03-08T06:06:57.087Z,80.00
2018-03-08T06:07:57.112Z,88.00
2018-03-08T06:08:57.108Z,84.00
2018-03-08T06:09:57.097Z,76.00
2018-03-08T06:10:57.102Z,84.00
2018-03-08T06:11:57.103Z,100.00
2018-03-08T06:12:57.109Z,116.00
2018-03-08T06:13:57.112Z,124.00
2018-03-08T06:14:57.115Z,124.00
2018-03-08T06:15:57.117Z,124.00
2018-03-08T06:16:57.121Z,128.00
2018-03-08T06:17:57.172Z,128.00
2018-03-08T06:18:57.129Z,128.00
2018-03-08T06:19:57.133Z,128.00
2018-03-08T06:20:57.140Z,108.00
2018-03-08T06:21:57.136Z,108.00
2018-03-08T06:22:57.142Z,128.00
2018-03-08T06:23:57.141Z,152.00
2018-03-08T06:24:57.147Z,152.00
2018-03-08T06:25:57.153Z,148.00
2018-03-08T06:26:57.159Z,164.00
2018-03-08T06:27:57.159Z,180.00
2018-03-08T06:28:57.159Z,188.00
2018-03-08T06:29:57.164Z,228.00
2018-03-08T06:30:57.166Z,228.00
2018-03-08T06:31:57.164Z,244.00
2018-03-08T06:32:57.174Z,260.00
2018-03-08T06:33:57.180Z,264.00
2018-03-08T06:34:57.179Z,292.00
2018-03-08T06:35:57.183Z,356.00
2018-03-08T06:36:57.199Z,396.00
2018-03-08T06:37:57.191Z,472.00
2018-03-08T06:38:57.217Z,544.00
2018-03-08T06:39:57.194Z,584.00
2018-03-08T06:40:57.200Z,496.00
2018-03-08T06:41:57.236Z,512.00
2018-03-08T06:42:57.204Z,568.00
2018-03-08T06:43:57.219Z,800.00
2018-03-08T06:44:57.214Z,1172.00
2018-03-08T06:45:57.218Z,1724.00
2018-03-08T06:46:57.230Z,2860.00
2018-03-08T06:47:57.230Z,2840.00
2018-03-08T06:48:57.228Z,2792.00
2018-03-08T06:49:57.228Z,2872.00
2018-03-08T06:50:57.236Z,2892.00
2018-03-08T06:51:57.237Z,3136.00
2018-03-08T06:52:57.245Z,2844.00
2018-03-08T06:53:57.247Z,2836.00
2018-03-08T06:54:57.248Z,3084.00
2018-03-08T06:55:57.254Z,3204.00
2018-03-08T06:56:57.255Z,3084.00
2018-03-08T06:57:57.256Z,3112.00
2018-03-08T06:58:57.260Z,3396.00
2018-03-08T06:59:57.261Z,3544.00
2018-03-08T07:00:57.280Z,3672.00
2018-03-08T07:01:57.271Z,3492.00
2018-03-08T07:02:57.286Z,3060.00
2018-03-08T07:03:57.289Z,3632.00
2018-03-08T07:04:57.296Z,4016.00
2018-03-08T07:06:50.360Z,4376.00
2018-03-08T07:07:50.292Z,4300.00
2018-03-08T07:09:43.251Z,4248.00
2018-03-08T07:10:43.226Z,4208.00
2018-03-08T07:12:36.228Z,4468.00
2018-03-08T07:13:36.433Z,4512.00
2018-03-08T07:15:30.141Z,4452.00
2018-03-08T07:16:29.648Z,4512.00
2018-03-08T07:18:23.208Z,7616.00
2018-03-08T07:19:22.637Z,21984.00
2018-03-08T07:21:17.586Z,48032.00
2018-03-08T07:22:15.570Z,51104.00
2018-03-08T07:24:08.811Z,52896.00
2018-03-08T07:25:08.533Z,50240.00
2018-03-08T07:27:02.551Z,52320.00
2018-03-08T07:28:01.571Z,50656.00
2018-03-08T07:29:55.444Z,51680.00
2018-03-08T07:30:54.538Z,53152.00
2018-03-08T07:32:48.403Z,58656.00
2018-03-08T07:33:47.627Z,59712.00
2018-03-08T07:35:43.475Z,56064.00
2018-03-08T07:36:41.461Z,59488.00
2018-03-08T07:38:36.443Z,49344.00
2018-03-08T07:39:33.437Z,19520.00
2018-03-08T07:41:27.366Z,6020.00
2018-03-08T07:42:26.413Z,5996.00
2018-03-08T07:44:20.008Z,6296.00
2018-03-08T07:45:20.334Z,6484.00
2018-03-08T07:47:20.298Z,7180.00
2018-03-08T07:48:14.330Z,7376.00
2018-03-08T07:50:05.273Z,33664.00
2018-03-08T07:51:05.243Z,63904.00
2018-03-08T07:53:00.732Z,66880.00
2018-03-08T07:53:58.224Z,65024.00
2018-03-08T07:55:51.225Z,69216.00
2018-03-08T07:56:52.208Z,69472.00
2018-03-08T07:59:06.277Z,71648.00
2018-03-08T07:59:45.134Z,72512.00
2018-03-08T08:03:21.799Z,72768.00
2018-03-08T08:05:41.235Z,74624.00
2018-03-08T08:07:51.179Z,74880.00
2018-03-08T08:08:44.632Z,75872.00
2018-03-08T08:10:37.572Z,75040.00
2018-03-08T08:11:37.599Z,74336.00
2018-03-08T08:13:36.568Z,74624.00
2018-03-08T08:14:31.515Z,75008.00
2018-03-08T08:16:27.378Z,76544.00
2018-03-08T08:17:24.002Z,79680.00
2018-03-08T08:19:17.741Z,80992.00
2018-03-08T08:20:18.448Z,81792.00
2018-03-08T08:22:15.945Z,83136.00
2018-03-08T08:23:13.179Z,83680.00
2018-03-08T08:25:04.345Z,77664.00
2018-03-08T08:26:04.388Z,68256.00
2018-03-08T08:28:04.644Z,47584.00
2018-03-08T08:28:58.847Z,39904.00
2018-03-08T08:30:51.672Z,32448.00
2018-03-08T08:31:52.303Z,31648.00
2018-03-08T08:34:04.895Z,31168.00
2018-03-08T08:35:38.160Z,31232.00
2018-03-08T08:36:36.254Z,32256.00
2018-03-08T08:38:30.706Z,32128.00
2018-03-08T08:39:29.716Z,31104.00
2018-03-08T08:41:26.594Z,32640.00
2018-03-08T08:42:23.180Z,32672.00
2018-03-08T08:44:26.645Z,32576.00
2018-03-08T08:46:42.268Z,33056.00
2018-03-08T08:47:29.594Z,33152.00
2018-03-08T08:49:22.610Z,18656.00
2018-03-08T08:51:37.823Z,33760.00
2018-03-08T08:56:58.942Z,34720.00
